Time;durP1;ratioP1;P1;durP2;ratioP2;P2;SDS_P1;SDS_P2;PMS_P1;PMS_P2;Temp;Humidity;BMP_temperature;BMP_pressure;BME280_temperature;BME280_humidity;BME280_pressure;Samples;Min_cycle;Max_cycle;Signal;HPM_P1;HPM_P2
2022/07/31 00:00:23;;;;;;;6.97;3.95;;;;;;;20.04;58.99;100169.78;5041915;28;20080;-61
2022/07/31 00:03:11;;;;;;;11.05;3.45;;;;;;;20.03;59.16;100164.56;5036182;28;20084;-61
2022/07/31 00:05:55;;;;;;;5.88;3.50;;;;;;;20.02;59.10;100153.16;5036792;28;20487;-61
2022/07/31 00:08:39;;;;;;;4.78;3.92;;;;;;;20.01;59.19;100154.06;5036587;28;20476;-62
2022/07/31 00:11:22;;;;;;;6.13;3.22;;;;;;;20.01;59.12;100150.56;5036639;28;20146;-61
2022/07/31 00:14:06;;;;;;;3.97;3.17;;;;;;;20.01;59.07;100142.69;5036393;28;20179;-60
2022/07/31 00:16:50;;;;;;;6.18;3.28;;;;;;;20.00;59.23;100140.94;5036441;28;20075;-61
2022/07/31 00:19:34;;;;;;;3.65;2.58;;;;;;;20.00;59.37;100148.84;5037129;28;20444;-61
2022/07/31 00:22:21;;;;;;;4.60;2.90;;;;;;;19.99;59.12;100157.63;5036715;28;20133;-63
2022/07/31 00:25:08;;;;;;;5.20;2.67;;;;;;;19.99;58.75;100161.13;5035997;28;20057;-60
2022/07/31 00:27:55;;;;;;;5.03;3.08;;;;;;;19.99;59.04;100163.75;5035927;28;20076;-63
2022/07/31 00:30:42;;;;;;;5.20;2.55;;;;;;;19.99;59.11;100155.00;5036031;28;20056;-62
2022/07/31 00:33:28;;;;;;;2.97;2.10;;;;;;;19.98;58.99;100159.41;5037064;28;20412;-62
2022/07/31 00:36:12;;;;;;;4.28;2.15;;;;;;;19.96;59.02;100145.41;5036039;28;20052;-63
2022/07/31 00:38:58;;;;;;;5.00;2.88;;;;;;;19.96;59.27;100145.41;5036873;28;20539;-62
2022/07/31 00:41:44;;;;;;;6.13;3.03;;;;;;;19.96;59.23;100149.78;5035967;28;20083;-62
2022/07/31 00:44:28;;;;;;;5.18;2.30;;;;;;;19.95;58.99;100143.69;5035661;28;20121;-63
2022/07/31 00:47:15;;;;;;;4.85;2.47;;;;;;;19.96;59.22;100153.31;5036900;28;20044;-62
2022/07/31 00:49:59;;;;;;;3.53;1.88;;;;;;;19.95;59.16;100158.56;5035640;28;20053;-62
2022/07/31 00:52:45;;;;;;;3.70;2.08;;;;;;;19.95;58.95;100162.09;5036553;28;20106;-62
2022/07/31 00:55:30;;;;;;;3.70;2.03;;;;;;;19.93;58.97;100148.94;5035788;28;20052;-62
2022/07/31 00:58:19;;;;;;;3.45;2.20;;;;;;;19.93;59.15;100146.31;5036634;28;20133;-61
2022/07/31 01:01:03;;;;;;;7.55;2.30;;;;;;;19.92;59.00;100142.00;5035677;28;20103;-61
2022/07/31 01:03:47;;;;;;;4.30;2.03;;;;;;;19.93;58.95;100140.22;5035231;28;20052;-61
2022/07/31 01:06:33;;;;;;;5.47;2.03;;;;;;;19.93;58.97;100132.31;5036241;28;20111;-60
2022/07/31 01:09:23;;;;;;;2.80;2.15;;;;;;;19.92;58.98;100141.09;5035567;28;20052;-61
2022/07/31 01:12:32;;;;;;;3.67;2.50;;;;;;;19.91;59.09;100134.13;5062532;28;20131;-60
2022/07/31 01:15:21;;;;;;;3.45;1.63;;;;;;;19.89;58.93;100139.41;5035303;28;20068;-60
2022/07/31 01:18:07;;;;;;;2.47;1.90;;;;;;;19.89;59.23;100144.69;5035042;28;20087;-61
2022/07/31 01:20:56;;;;;;;2.95;2.10;;;;;;;19.90;59.04;100153.41;5035315;28;20052;-61
2022/07/31 01:23:40;;;;;;;4.35;2.08;;;;;;;19.89;58.91;100151.69;5034833;28;20052;-62
2022/07/31 01:26:42;;;;;;;3.15;2.03;;;;;;;19.89;59.06;100152.56;5036165;28;20095;-62
2022/07/31 01:29:31;;;;;;;3.78;2.15;;;;;;;19.89;59.07;100143.78;5035988;28;20075;-62
2022/07/31 01:32:21;;;;;;;2.25;1.70;;;;;;;19.87;58.93;100142.97;5034958;28;20131;-62
2022/07/31 01:35:22;;;;;;;6.03;1.95;;;;;;;19.86;58.76;100147.34;5035297;28;20044;-62
2022/07/31 01:38:20;;;;;;;8.45;2.30;;;;;;;19.85;58.95;100142.13;5035851;28;20444;-62
2022/07/31 01:41:09;;;;;;;2.70;1.88;;;;;;;19.84;58.85;100132.50;5034681;28;20047;-61
2022/07/31 01:43:55;;;;;;;3.63;2.10;;;;;;;19.85;59.10;100137.72;5034690;28;20068;-61
2022/07/31 01:46:43;;;;;;;2.97;1.90;;;;;;;19.83;58.99;100136.88;5034935;28;20400;-61
2022/07/31 01:49:32;;;;;;;4.68;2.55;;;;;;;19.82;59.16;100142.19;5034483;28;20172;-60
2022/07/31 01:52:19;;;;;;;3.25;2.30;;;;;;;19.82;59.10;100132.50;5035554;28;20052;-62
2022/07/31 01:55:04;;;;;;;3.42;2.13;;;;;;;19.81;58.90;100140.44;5035364;28;20051;-62
2022/07/31 01:57:51;;;;;;;5.22;2.05;;;;;;;19.81;59.13;100135.19;5034554;28;20099;-62
2022/07/31 02:00:39;;;;;;;4.28;2.10;;;;;;;19.78;59.21;100136.09;5062700;28;20052;-62
2022/07/31 02:03:25;;;;;;;4.47;1.88;;;;;;;19.80;59.07;100143.97;5034043;28;20064;-62
2022/07/31 02:06:12;;;;;;;3.85;2.25;;;;;;;19.79;59.21;100143.09;5034314;28;20072;-62
2022/07/31 02:08:57;;;;;;;4.15;1.90;;;;;;;19.77;59.31;100139.66;5034325;28;20577;-62
2022/07/31 02:11:43;;;;;;;2.75;2.10;;;;;;;19.76;59.36;100143.19;5034376;28;20048;-62
2022/07/31 02:14:31;;;;;;;5.78;2.20;;;;;;;19.76;59.14;100146.66;5034186;28;20119;-62
2022/07/31 02:17:16;;;;;;;3.30;2.20;;;;;;;19.75;59.28;100146.69;5034996;28;20052;-62
2022/07/31 02:20:04;;;;;;;3.45;2.10;;;;;;;19.75;59.49;100141.44;5034857;28;20044;-62
2022/07/31 02:22:51;;;;;;;3.38;2.20;;;;;;;19.76;59.37;100141.41;5032640;28;20053;-62
2022/07/31 02:25:36;;;;;;;3.05;2.20;;;;;;;19.75;59.30;100133.56;5033752;28;20092;-62
2022/07/31 02:28:21;;;;;;;2.17;1.80;;;;;;;19.74;59.23;100137.94;5034548;28;20048;-62
2022/07/31 02:31:10;;;;;;;4.53;2.10;;;;;;;19.74;59.62;100132.66;5033958;28;20225;-63
2022/07/31 02:33:54;;;;;;;6.10;1.90;;;;;;;19.74;59.49;100123.94;5033752;28;20125;-62
2022/07/31 02:36:39;;;;;;;3.65;2.22;;;;;;;19.73;59.46;100130.09;5034789;28;20083;-62
2022/07/31 02:39:26;;;;;;;5.03;1.75;;;;;;;19.72;59.64;100128.34;5033557;28;20080;-63
2022/07/31 02:42:11;;;;;;;2.92;2.00;;;;;;;19.72;59.52;100133.59;5033776;28;20090;-61
2022/07/31 02:44:55;;;;;;;3.47;2.05;;;;;;;19.71;59.81;100130.09;5034605;28;20101;-61
2022/07/31 02:47:44;;;;;;;4.35;1.83;;;;;;;19.70;59.52;100128.38;5034405;28;20404;-61
2022/07/31 02:50:30;;;;;;;4.43;2.15;;;;;;;19.70;59.65;100127.50;5034581;28;20072;-61
2022/07/31 02:53:18;;;;;;;5.00;2.15;;;;;;;19.68;59.96;100127.56;5033489;28;20096;-62
2022/07/31 02:56:08;;;;;;;4.60;2.30;;;;;;;19.66;59.84;100128.47;5033489;28;20051;-62
2022/07/31 02:58:52;;;;;;;3.17;2.42;;;;;;;19.66;59.85;100121.47;5033498;28;20543;-62
2022/07/31 03:01:38;;;;;;;2.22;1.95;;;;;;;19.66;59.99;100112.69;5036576;28;20072;-62
2022/07/31 03:04:23;;;;;;;3.65;1.90;;;;;;;19.65;59.73;100111.84;5053990;28;20400;-63
2022/07/31 03:07:09;;;;;;;3.20;2.20;;;;;;;19.64;60.00;100102.22;5054275;28;20522;-61
2022/07/31 03:09:53;;;;;;;4.07;2.22;;;;;;;19.65;59.93;100100.44;5054211;28;20094;-61
2022/07/31 03:12:43;;;;;;;4.22;2.33;;;;;;;19.64;59.97;100104.84;5038835;28;20051;-61
2022/07/31 03:15:29;;;;;;;4.07;2.50;;;;;;;19.63;60.12;100095.22;5039008;28;20118;-61
2022/07/31 03:18:17;;;;;;;5.15;2.30;;;;;;;19.63;60.25;100093.44;5038982;28;20155;-60
2022/07/31 03:21:02;;;;;;;4.00;2.30;;;;;;;19.63;60.00;100100.47;5038936;28;20076;-61
2022/07/31 03:23:46;;;;;;;3.33;2.35;;;;;;;19.63;60.02;100108.38;5038688;28;20048;-62
2022/07/31 03:26:31;;;;;;;3.60;2.25;;;;;;;19.62;60.02;100104.00;5053559;28;20070;-62
2022/07/31 03:29:15;;;;;;;7.70;2.45;;;;;;;19.63;60.05;100111.84;5038586;28;20094;-61
2022/07/31 03:31:59;;;;;;;5.78;2.58;;;;;;;19.62;60.02;100111.91;5053857;28;20071;-61
2022/07/31 03:34:43;;;;;;;4.72;1.90;;;;;;;19.60;60.24;100113.69;5053128;28;20083;-60
2022/07/31 03:37:27;;;;;;;4.85;2.97;;;;;;;19.59;60.16;100118.09;5053484;28;20044;-61
2022/07/31 03:40:12;;;;;;;2.88;2.35;;;;;;;19.59;60.05;100115.47;5053437;28;20503;-62
2022/07/31 03:42:58;;;;;;;2.83;1.90;;;;;;;19.58;60.22;100113.72;5053431;28;20056;-62
2022/07/31 03:45:46;;;;;;;2.97;2.20;;;;;;;19.58;60.37;100110.22;5038532;28;20496;-62
2022/07/31 03:48:32;;;;;;;3.67;2.25;;;;;;;19.57;60.36;100103.22;5038472;28;20048;-62
2022/07/31 03:51:17;;;;;;;4.85;2.35;;;;;;;19.57;60.33;100112.00;5066648;28;20056;-62
2022/07/31 03:54:04;;;;;;;5.28;2.63;;;;;;;19.58;60.40;100118.09;5038536;28;20109;-63
2022/07/31 03:56:51;;;;;;;3.97;2.30;;;;;;;19.57;60.48;100106.75;5038430;28;20129;-63
2022/07/31 03:59:35;;;;;;;2.85;2.30;;;;;;;19.56;60.53;100112.00;5038487;28;20140;-61
2022/07/31 04:02:20;;;;;;;5.57;2.28;;;;;;;19.57;60.41;100108.47;5037992;28;20122;-62
2022/07/31 04:05:08;;;;;;;6.38;2.45;;;;;;;19.57;60.54;100111.13;5066730;28;20052;-62
2022/07/31 04:07:55;;;;;;;8.05;2.42;;;;;;;19.56;60.72;100114.63;5053286;28;20048;-62
2022/07/31 04:10:39;;;;;;;4.82;2.20;;;;;;;19.56;60.50;100115.50;5053009;28;20227;-62
2022/07/31 04:13:23;;;;;;;4.13;2.20;;;;;;;19.56;60.69;100112.88;5053147;28;20052;-62
2022/07/31 04:16:09;;;;;;;5.13;2.53;;;;;;;19.55;60.87;100110.28;5053022;28;20550;-60
2022/07/31 04:18:53;;;;;;;4.93;2.58;;;;;;;19.55;60.87;100107.63;5038422;28;20521;-61
2022/07/31 04:21:37;;;;;;;7.30;2.58;;;;;;;19.55;60.90;100107.63;5053305;28;20056;-61
2022/07/31 04:24:21;;;;;;;3.95;2.35;;;;;;;19.57;60.79;100108.47;5053044;28;20154;-60
2022/07/31 04:27:08;;;;;;;4.18;2.20;;;;;;;19.56;61.03;100112.00;5052997;28;20593;-61
2022/07/31 04:29:52;;;;;;;3.42;2.30;;;;;;;19.55;61.07;100115.53;5038009;28;20098;-62
2022/07/31 04:32:38;;;;;;;5.03;2.97;;;;;;;19.55;61.06;100119.03;5053021;28;20102;-62
2022/07/31 04:35:24;;;;;;;4.85;2.60;;;;;;;19.55;61.24;100116.41;5052822;28;20527;-62
2022/07/31 04:38:11;;;;;;;4.55;2.75;;;;;;;19.55;61.44;100118.16;5052996;28;20091;-62
2022/07/31 04:40:55;;;;;;;3.58;2.65;;;;;;;19.54;61.17;100125.19;5038083;28;20519;-63
2022/07/31 04:43:39;;;;;;;3.35;2.30;;;;;;;19.53;61.52;100118.19;5038071;28;20075;-62
2022/07/31 04:46:23;;;;;;;3.78;2.30;;;;;;;19.54;61.48;100121.72;5054698;28;20519;-62
2022/07/31 04:49:07;;;;;;;3.38;2.70;;;;;;;19.54;61.65;100121.72;5056580;28;20602;-62
2022/07/31 04:51:52;;;;;;;2.97;2.05;;;;;;;19.53;61.60;100119.97;5056805;28;20063;-62
2022/07/31 04:54:38;;;;;;;3.35;2.40;;;;;;;19.53;61.53;100126.09;5056514;28;20055;-62
2022/07/31 04:57:25;;;;;;;2.90;2.50;;;;;;;19.54;61.69;100124.34;5041524;28;20051;-63
2022/07/31 05:00:09;;;;;;;5.40;2.75;;;;;;;19.54;61.82;100124.34;5041322;28;20407;-62
2022/07/31 05:02:53;;;;;;;5.00;2.28;;;;;;;19.53;61.53;100119.97;5056048;28;20059;-62
2022/07/31 05:05:41;;;;;;;3.17;2.20;;;;;;;19.53;61.78;100120.81;5056549;28;20095;-62
2022/07/31 05:08:25;;;;;;;5.00;2.47;;;;;;;19.53;61.83;100120.81;5069590;28;20055;-61
2022/07/31 05:11:23;;;;;;;4.43;2.50;;;;;;;19.52;61.86;100124.34;5056061;28;20152;-62
2022/07/31 05:14:12;;;;;;;4.18;2.20;;;;;;;19.50;61.80;100120.88;5041251;28;20087;-62
2022/07/31 05:16:56;;;;;;;4.18;2.45;;;;;;;19.49;62.16;100108.63;5056149;28;20055;-62
2022/07/31 05:19:40;;;;;;;9.07;2.55;;;;;;;19.51;61.98;100114.72;5055848;28;20047;-62
2022/07/31 05:22:24;;;;;;;3.75;2.22;;;;;;;19.49;62.03;100111.25;5056009;28;20047;-62
2022/07/31 05:25:10;;;;;;;4.13;2.40;;;;;;;19.50;62.10;100112.16;5041078;28;20048;-62
2022/07/31 05:27:55;;;;;;;3.42;2.28;;;;;;;19.51;61.99;100114.72;5040627;28;20052;-62
2022/07/31 05:30:39;;;;;;;6.72;2.85;;;;;;;19.50;62.30;100110.38;5055880;28;20051;-62
2022/07/31 05:33:27;;;;;;;3.85;2.17;;;;;;;19.48;62.52;100113.03;5040722;28;20122;-62
2022/07/31 05:36:11;;;;;;;2.95;2.10;;;;;;;19.48;62.58;100102.53;5055755;28;20052;-62
2022/07/31 05:38:55;;;;;;;6.75;2.40;;;;;;;19.51;62.61;100106.84;5069043;28;20110;-61
2022/07/31 05:41:41;;;;;;;6.05;2.58;;;;;;;19.48;62.51;100102.53;5056122;28;20114;-61
2022/07/31 05:44:25;;;;;;;4.88;2.30;;;;;;;19.50;62.88;100115.63;5055512;28;20114;-61
2022/07/31 05:47:12;;;;;;;3.50;2.25;;;;;;;19.50;62.67;100114.78;5055797;28;20065;-61
2022/07/31 05:50:03;;;;;;;3.75;2.47;;;;;;;19.49;62.82;100111.25;5040318;28;20055;-61
2022/07/31 05:52:50;;;;;;;3.00;2.10;;;;;;;19.50;62.98;100109.53;5040678;28;20404;-61
2022/07/31 05:55:34;;;;;;;3.05;2.25;;;;;;;19.50;63.11;100109.53;5040269;28;20101;-61
2022/07/31 05:58:19;;;;;;;3.13;1.85;;;;;;;19.51;62.89;100111.25;5040209;28;20048;-61
2022/07/31 06:01:05;;;;;;;3.80;2.05;;;;;;;19.49;63.34;100108.63;5040612;28;20102;-61
2022/07/31 06:03:52;;;;;;;3.70;2.00;;;;;;;19.49;63.30;100106.00;5054769;28;20083;-61
2022/07/31 06:06:41;;;;;;;2.70;2.03;;;;;;;19.50;63.52;100110.38;5039958;28;20154;-61
2022/07/31 06:09:28;;;;;;;3.30;2.20;;;;;;;19.50;63.65;100112.16;5055343;28;20063;-61
2022/07/31 06:12:12;;;;;;;2.55;2.17;;;;;;;19.51;63.36;100104.22;5054790;28;20087;-61
2022/07/31 06:14:59;;;;;;;2.78;2.28;;;;;;;19.51;63.56;100113.88;5068311;28;20110;-61
2022/07/31 06:17:48;;;;;;;4.25;2.15;;;;;;;19.51;63.43;100106.00;5054632;28;20087;-60
2022/07/31 06:20:33;;;;;;;2.22;1.90;;;;;;;19.52;63.40;100102.47;5039924;28;20407;-60
2022/07/31 06:23:22;;;;;;;3.42;2.28;;;;;;;19.51;63.54;100101.59;5054868;28;20047;-61
2022/07/31 06:26:07;;;;;;;2.28;1.90;;;;;;;19.50;63.56;100109.53;5054695;28;20130;-61
2022/07/31 06:28:53;;;;;;;2.97;2.20;;;;;;;19.49;63.65;100106.00;5054807;28;20040;-63
2022/07/31 06:31:40;;;;;;;3.78;2.28;;;;;;;19.50;63.88;100109.53;5054563;28;20055;-63
2022/07/31 06:34:26;;;;;;;8.20;2.25;;;;;;;19.51;63.83;100111.25;5054506;28;20047;-61
2022/07/31 06:37:13;;;;;;;3.47;1.92;;;;;;;19.51;63.94;100111.25;5039799;28;20051;-63
2022/07/31 06:40:00;;;;;;;2.97;2.08;;;;;;;19.50;63.80;100107.75;5054409;28;20099;-63
2022/07/31 06:42:49;;;;;;;4.95;2.25;;;;;;;19.51;64.11;100112.09;5039500;28;20071;-61
2022/07/31 06:45:33;;;;;;;3.58;2.30;;;;;;;19.51;63.93;100117.38;5039413;28;20059;-61
2022/07/31 06:48:20;;;;;;;5.32;2.63;;;;;;;19.50;64.03;100110.38;5054556;28;20094;-62
2022/07/31 06:51:06;;;;;;;10.45;3.05;;;;;;;19.53;64.20;100109.47;5054337;28;20096;-63
2022/07/31 06:53:51;;;;;;;3.22;2.03;;;;;;;19.52;64.10;100105.94;5054256;28;20040;-61
2022/07/31 06:56:38;;;;;;;4.78;2.30;;;;;;;19.53;64.10;100110.31;5054392;28;20395;-63
2022/07/31 06:59:25;;;;;;;15.35;2.97;;;;;;;19.53;64.29;100098.94;5039324;28;20075;-62
2022/07/31 07:02:16;;;;;;;3.67;2.35;;;;;;;19.53;64.23;100098.94;5038924;28;20055;-62
2022/07/31 07:05:00;;;;;;;3.28;2.10;;;;;;;19.54;64.65;100095.44;5039140;28;20099;-63
2022/07/31 07:07:44;;;;;;;3.15;2.53;;;;;;;19.54;64.36;100106.78;5054309;28;20135;-62
2022/07/31 07:10:33;;;;;;;4.47;2.58;;;;;;;19.53;64.61;100102.44;5053905;28;20059;-62
2022/07/31 07:13:25;;;;;;;4.78;2.30;;;;;;;19.55;64.51;100102.38;5054111;28;20102;-62
2022/07/31 07:16:09;;;;;;;4.10;2.05;;;;;;;19.55;64.44;100102.38;5038801;28;20087;-61
2022/07/31 07:18:55;;;;;;;2.75;2.20;;;;;;;19.55;64.65;100098.00;5053987;28;20052;-61
2022/07/31 07:21:45;;;;;;;4.07;2.25;;;;;;;19.55;64.93;100097.13;5053984;28;20108;-61
2022/07/31 07:24:31;;;;;;;5.40;2.45;;;;;;;19.56;64.76;100101.50;5053325;28;20451;-61
2022/07/31 07:27:15;;;;;;;4.65;2.53;;;;;;;19.56;64.78;100096.25;5053818;28;20114;-61
2022/07/31 07:30:03;;;;;;;3.40;2.63;;;;;;;19.55;64.99;100100.66;5053866;28;20502;-62
2022/07/31 07:32:49;;;;;;;3.53;2.47;;;;;;;19.56;64.87;100099.75;5038943;28;20091;-61
2022/07/31 07:35:38;;;;;;;5.53;3.17;;;;;;;19.55;65.07;100098.00;5038607;28;20079;-61
2022/07/31 07:38:25;;;;;;;3.95;2.63;;;;;;;19.56;64.97;100104.13;5053783;28;20055;-62
2022/07/31 07:41:09;;;;;;;3.67;2.90;;;;;;;19.56;65.03;100101.50;5038246;28;20048;-61
2022/07/31 07:43:56;;;;;;;3.47;3.13;;;;;;;19.56;64.92;100098.88;5038328;28;20067;-63
2022/07/31 07:46:40;;;;;;;5.45;3.10;;;;;;;19.55;65.18;100094.50;5038293;28;20074;-61
2022/07/31 07:49:24;;;;;;;5.13;3.22;;;;;;;19.57;65.08;100095.34;5066430;28;20124;-61
2022/07/31 07:52:08;;;;;;;3.47;2.55;;;;;;;19.59;65.07;100089.19;5053455;28;20052;-60
2022/07/31 07:54:52;;;;;;;3.80;2.75;;;;;;;19.60;65.22;100083.03;5053685;28;20119;-61
2022/07/31 07:57:36;;;;;;;3.10;2.80;;;;;;;19.62;65.24;100082.97;5053419;28;20091;-61
2022/07/31 08:00:20;;;;;;;3.22;2.92;;;;;;;19.63;65.13;100087.34;5053269;28;20391;-62
2022/07/31 08:03:04;;;;;;;4.50;3.15;;;;;;;19.64;65.26;100078.56;5052960;28;20562;-62
2022/07/31 08:05:53;;;;;;;3.17;2.88;;;;;;;19.67;65.33;100086.38;5038410;28;20090;-62
2022/07/31 08:08:37;;;;;;;3.63;2.88;;;;;;;19.68;65.20;100097.75;5038245;28;20569;-62
2022/07/31 08:11:21;;;;;;;4.93;3.30;;;;;;;19.69;65.12;100089.84;5053511;28;20539;-62
2022/07/31 08:14:05;;;;;;;3.88;3.00;;;;;;;19.69;65.15;100089.84;5053170;28;20087;-62
2022/07/31 08:16:49;;;;;;;3.38;3.05;;;;;;;19.73;65.05;100098.53;5066409;28;20051;-62
2022/07/31 08:19:33;;;;;;;4.78;3.10;;;;;;;19.74;65.27;100098.50;5053678;28;20048;-62
2022/07/31 08:22:17;;;;;;;3.55;3.17;;;;;;;19.74;65.07;100090.59;5057319;28;20044;-62
2022/07/31 08:25:01;;;;;;;4.43;2.95;;;;;;;19.74;65.14;100087.97;5056810;28;20090;-62
2022/07/31 08:27:48;;;;;;;6.53;3.88;;;;;;;19.76;65.32;100093.22;5057063;28;20048;-63
2022/07/31 08:30:32;;;;;;;4.20;3.25;;;;;;;19.77;65.45;100081.81;5056980;28;20549;-63
2022/07/31 08:33:19;;;;;;;4.28;3.85;;;;;;;19.76;65.20;100086.19;5056770;28;20044;-62
2022/07/31 08:36:03;;;;;;;4.32;3.20;;;;;;;19.78;65.10;100083.50;5056990;28;20102;-62
2022/07/31 08:38:50;;;;;;;3.95;3.53;;;;;;;19.81;65.29;100086.06;5041864;28;20047;-63
2022/07/31 08:41:37;;;;;;;4.57;3.60;;;;;;;19.79;65.48;100077.34;5057037;28;20092;-63
2022/07/31 08:44:24;;;;;;;4.68;4.07;;;;;;;19.82;65.20;100084.31;5041659;28;20550;-62
2022/07/31 08:47:11;;;;;;;3.88;3.47;;;;;;;19.81;65.21;100083.44;5056873;28;20131;-62
2022/07/31 08:49:58;;;;;;;6.25;3.75;;;;;;;19.82;65.25;100086.97;5041568;28;20040;-62
2022/07/31 08:52:48;;;;;;;4.38;3.97;;;;;;;19.83;65.24;100091.31;5041703;28;20064;-62
2022/07/31 08:55:32;;;;;;;6.75;3.78;;;;;;;19.86;65.41;100083.34;5041714;28;20071;-62
2022/07/31 08:58:18;;;;;;;5.50;3.72;;;;;;;19.85;65.47;100093.00;5041593;28;20055;-63
2022/07/31 09:01:02;;;;;;;4.32;3.90;;;;;;;19.88;65.23;100089.47;5056143;28;20088;-62
2022/07/31 09:03:46;;;;;;;4.30;3.90;;;;;;;19.89;65.32;100080.69;5056074;28;20063;-62
2022/07/31 09:06:30;;;;;;;4.88;4.30;;;;;;;19.90;65.02;100085.94;5056566;28;20047;-63
2022/07/31 09:09:16;;;;;;;5.60;4.53;;;;;;;19.92;65.12;100078.00;5041376;28;20048;-62
2022/07/31 09:12:00;;;;;;;5.88;4.50;;;;;;;19.93;65.38;100072.69;5041349;28;20040;-62
2022/07/31 09:14:48;;;;;;;4.80;4.30;;;;;;;19.95;65.04;100071.78;5056330;28;20059;-63
2022/07/31 09:17:35;;;;;;;5.25;4.05;;;;;;;19.95;65.19;100077.94;5056201;28;20052;-61
2022/07/31 09:20:24;;;;;;;7.28;4.03;;;;;;;19.98;65.15;100074.34;5041171;28;20102;-61
2022/07/31 09:23:12;;;;;;;5.05;4.55;;;;;;;19.99;65.33;100076.97;5040940;28;20130;-63
2022/07/31 09:26:03;;;;;;;6.95;4.78;;;;;;;20.01;65.27;100077.78;5040962;28;20047;-62
2022/07/31 09:28:49;;;;;;;4.85;4.30;;;;;;;20.01;64.92;100069.88;5040985;28;20090;-61
2022/07/31 09:31:34;;;;;;;5.57;4.57;;;;;;;20.04;65.23;100071.59;5040320;28;20079;-61
2022/07/31 09:34:27;;;;;;;4.63;4.13;;;;;;;20.05;65.15;100071.56;5055605;28;20052;-61
2022/07/31 09:37:16;;;;;;;5.63;5.00;;;;;;;20.08;65.19;100089.06;5055588;28;20576;-61
2022/07/31 09:40:00;;;;;;;7.93;4.75;;;;;;;20.10;65.26;100075.84;5056348;28;20059;-61
2022/07/31 09:42:47;;;;;;;4.93;4.43;;;;;;;20.11;65.04;100078.44;5040703;28;20195;-61
2022/07/31 09:45:33;;;;;;;5.72;4.55;;;;;;;20.13;65.10;100083.69;5055502;28;20056;-61
2022/07/31 09:48:19;;;;;;;5.75;4.53;;;;;;;20.14;64.66;100064.38;5055687;28;20076;-61
2022/07/31 09:51:10;;;;;;;5.22;4.47;;;;;;;20.14;64.97;100065.22;5055387;28;20048;-61
2022/07/31 09:53:58;;;;;;;6.25;4.13;;;;;;;20.15;64.80;100061.69;5040505;28;20094;-61
2022/07/31 09:56:43;;;;;;;5.15;3.60;;;;;;;20.16;64.86;100059.94;5055628;28;20048;-61
2022/07/31 09:59:29;;;;;;;5.20;3.95;;;;;;;20.18;65.08;100052.84;5040475;28;20179;-61
2022/07/31 10:02:17;;;;;;;7.68;4.10;;;;;;;20.20;64.83;100053.69;5054956;28;20136;-61
2022/07/31 10:05:01;;;;;;;4.43;3.90;;;;;;;20.20;64.77;100056.31;5039978;28;20048;-61
2022/07/31 10:07:46;;;;;;;7.38;4.30;;;;;;;20.22;64.89;100057.13;5055207;28;20140;-62
2022/07/31 10:10:31;;;;;;;5.20;3.90;;;;;;;20.24;64.85;100060.59;5040159;28;20094;-62
2022/07/31 10:13:19;;;;;;;3.97;3.58;;;;;;;20.25;64.74;100075.50;5055066;28;20048;-62
2022/07/31 10:16:05;;;;;;;5.53;3.55;;;;;;;20.27;64.74;100075.44;5039892;28;20174;-62
2022/07/31 10:18:55;;;;;;;3.60;3.13;;;;;;;20.27;64.99;100060.53;5039976;28;20190;-62
2022/07/31 10:21:48;;;;;;;3.35;2.72;;;;;;;20.28;64.72;100067.53;5055024;28;20098;-63
2022/07/31 10:24:39;;;;;;;4.10;3.50;;;;;;;20.28;64.83;100067.53;5039413;28;20124;-61
2022/07/31 10:27:23;;;;;;;3.97;3.13;;;;;;;20.29;64.68;100058.75;5054867;28;20131;-61
2022/07/31 10:30:08;;;;;;;5.03;3.60;;;;;;;20.30;64.75;100059.59;5067813;28;20044;-61
2022/07/31 10:32:52;;;;;;;4.82;3.45;;;;;;;20.32;64.64;100066.53;5039630;28;20047;-61
2022/07/31 10:35:49;;;;;;;3.72;3.30;;;;;;;20.32;64.60;100050.75;5039666;28;20091;-60
2022/07/31 10:38:49;;;;;;;5.30;3.05;;;;;;;20.34;64.57;100048.94;5039927;28;20048;-61
2022/07/31 10:42:05;;;;;;;3.65;2.83;;;;;;;20.35;64.66;100055.94;5054764;28;20097;-62
2022/07/31 10:45:01;;;;;;;3.80;3.00;;;;;;;20.35;64.45;100050.69;5038874;28;20048;-61
2022/07/31 10:47:53;;;;;;;5.22;3.47;;;;;;;20.35;64.28;100045.41;5039632;28;20059;-61
2022/07/31 10:50:37;;;;;;;4.63;3.10;;;;;;;20.37;64.62;100048.03;5054480;28;20117;-62
2022/07/31 10:53:24;;;;;;;4.68;3.38;;;;;;;20.37;64.48;100046.25;5054315;28;20048;-63
2022/07/31 10:56:11;;;;;;;5.93;3.78;;;;;;;20.39;64.33;100044.44;5039263;28;20055;-62
2022/07/31 10:58:58;;;;;;;4.72;3.15;;;;;;;20.39;64.35;100047.06;5039316;28;20573;-63
2022/07/31 11:01:46;;;;;;;4.82;3.25;;;;;;;20.41;64.35;100046.19;5053667;28;20052;-62
2022/07/31 11:04:34;;;;;;;4.80;3.60;;;;;;;20.43;64.17;100052.28;5067043;28;20092;-63
2022/07/31 11:07:20;;;;;;;5.57;3.13;;;;;;;20.46;64.17;100046.94;5054000;28;20103;-61
2022/07/31 11:10:09;;;;;;;7.13;3.30;;;;;;;20.45;64.35;100037.31;5053594;28;20129;-62
2022/07/31 11:13:04;;;;;;;6.88;3.20;;;;;;;20.45;64.23;100034.69;5039106;28;20056;-61
2022/07/31 11:15:51;;;;;;;3.80;2.78;;;;;;;20.44;64.10;100036.44;5038985;28;20052;-61
2022/07/31 11:18:35;;;;;;;5.40;3.45;;;;;;;20.45;64.20;100039.94;5039087;28;20055;-60
2022/07/31 11:21:30;;;;;;;4.47;3.22;;;;;;;20.44;64.21;100041.69;5053581;28;20047;-61
2022/07/31 11:24:22;;;;;;;3.78;3.17;;;;;;;20.45;64.34;100030.25;5053785;28;20090;-60
2022/07/31 11:27:06;;;;;;;5.07;3.15;;;;;;;20.45;64.04;100025.00;5053796;28;20523;-63
2022/07/31 11:29:50;;;;;;;4.63;3.15;;;;;;;20.46;64.16;100028.50;5038961;28;20127;-61
2022/07/31 11:32:34;;;;;;;5.60;3.33;;;;;;;20.48;64.08;100029.31;5053878;28;20072;-61
2022/07/31 11:35:29;;;;;;;4.25;3.17;;;;;;;20.50;64.04;100024.88;5053702;28;20106;-61
2022/07/31 11:38:13;;;;;;;4.47;3.83;;;;;;;20.51;64.21;100027.50;5038741;28;20123;-62
2022/07/31 11:40:57;;;;;;;5.15;3.22;;;;;;;20.53;64.16;100024.81;5038685;28;20051;-62
2022/07/31 11:43:48;;;;;;;3.85;3.17;;;;;;;20.53;64.16;100020.41;5038363;28;20047;-62
2022/07/31 11:46:33;;;;;;;4.15;3.33;;;;;;;20.54;64.02;100022.16;5053609;28;20051;-62
2022/07/31 11:49:22;;;;;;;4.65;3.40;;;;;;;20.57;63.85;100015.94;5038576;28;20048;-62
2022/07/31 11:52:08;;;;;;;3.33;2.80;;;;;;;20.59;63.67;100018.50;5038620;28;20098;-62
2022/07/31 11:55:02;;;;;;;4.07;2.95;;;;;;;20.59;63.99;100022.03;5038224;28;20110;-62
2022/07/31 11:57:46;;;;;;;3.25;2.85;;;;;;;20.61;64.13;100022.84;5038486;28;20083;-62
2022/07/31 12:00:30;;;;;;;6.43;2.95;;;;;;;20.63;64.02;100028.91;5053272;28;20080;-60
2022/07/31 12:03:21;;;;;;;5.18;3.35;;;;;;;20.64;63.94;100022.75;5032267;28;20476;-61
2022/07/31 12:06:07;;;;;;;5.13;2.95;;;;;;;20.66;63.85;100022.72;5032645;28;20044;-62
2022/07/31 12:08:51;;;;;;;7.97;3.20;;;;;;;20.69;63.83;100026.13;5033161;28;20045;-61
2022/07/31 12:11:36;;;;;;;4.85;3.42;;;;;;;20.69;63.79;100005.06;5033388;28;20049;-61
2022/07/31 12:14:46;;;;;;;4.57;2.53;;;;;;;20.72;63.80;100004.13;5033513;28;20424;-61
2022/07/31 12:17:32;;;;;;;5.07;3.35;;;;;;;20.72;63.91;100005.91;5033154;28;20072;-61
2022/07/31 12:20:19;;;;;;;4.68;3.45;;;;;;;20.73;63.63;100011.13;5033086;28;20145;-61
2022/07/31 12:23:05;;;;;;;6.43;3.50;;;;;;;20.75;63.50;100008.47;5032157;28;20531;-62
2022/07/31 12:25:52;;;;;;;8.48;3.42;;;;;;;20.74;63.75;100014.63;5032229;28;20053;-61
2022/07/31 12:28:38;;;;;;;5.03;3.38;;;;;;;20.75;63.85;100006.72;5032472;28;20076;-62
2022/07/31 12:31:22;;;;;;;6.40;3.40;;;;;;;20.76;63.48;100016.34;5033603;28;20056;-62
2022/07/31 12:34:07;;;;;;;5.97;3.50;;;;;;;20.77;63.64;100010.16;5033175;28;20051;-63
2022/07/31 12:37:05;;;;;;;3.88;3.40;;;;;;;20.76;63.62;100008.44;5033049;28;20092;-62
2022/07/31 12:39:49;;;;;;;4.47;3.22;;;;;;;20.75;63.61;100009.34;5032280;28;20060;-62
2022/07/31 12:42:36;;;;;;;6.82;3.42;;;;;;;20.75;63.50;100013.72;5032505;28;20052;-62
2022/07/31 12:45:37;;;;;;;5.10;3.47;;;;;;;20.75;63.66;100003.19;5032251;28;20396;-61
2022/07/31 12:48:21;;;;;;;6.63;3.53;;;;;;;20.75;63.39;99998.81;5032063;28;20083;-60
2022/07/31 12:51:05;;;;;;;5.47;3.83;;;;;;;20.77;63.49;100001.41;5032761;28;20111;-61
2022/07/31 12:53:49;;;;;;;4.93;3.60;;;;;;;20.77;63.54;99991.72;5031973;28;20075;-61